sensor_id;sensor_type;location;lat;lon;timestamp;P1;durP1;ratioP1;P2;durP2;ratioP2
50337;SDS011;46221;51.178;5.900;2023-06-26T00:02:10;8.32;;;7.13;;
50337;SDS011;46221;51.178;5.900;2023-06-26T00:04:37;7.97;;;6.65;;
50337;SDS011;46221;51.178;5.900;2023-06-26T00:07:04;9.13;;;7.20;;
50337;SDS011;46221;51.178;5.900;2023-06-26T00:09:30;8.88;;;7.15;;
50337;SDS011;46221;51.178;5.900;2023-06-26T00:11:57;8.15;;;7.07;;
50337;SDS011;46221;51.178;5.900;2023-06-26T00:14:23;8.48;;;6.72;;
50337;SDS011;46221;51.178;5.900;2023-06-26T00:16:49;7.70;;;6.65;;
50337;SDS011;46221;51.178;5.900;2023-06-26T00:19:16;8.40;;;7.00;;
50337;SDS011;46221;51.178;5.900;2023-06-26T00:21:42;7.97;;;6.85;;
50337;SDS011;46221;51.178;5.900;2023-06-26T00:24:14;7.95;;;7.13;;
50337;SDS011;46221;51.178;5.900;2023-06-26T00:26:40;8.57;;;6.88;;
50337;SDS011;46221;51.178;5.900;2023-06-26T00:29:07;8.85;;;7.03;;
50337;SDS011;46221;51.178;5.900;2023-06-26T00:31:33;8.32;;;7.10;;
50337;SDS011;46221;51.178;5.900;2023-06-26T00:34:01;9.02;;;7.22;;
50337;SDS011;46221;51.178;5.900;2023-06-26T00:36:28;8.02;;;7.15;;
50337;SDS011;46221;51.178;5.900;2023-06-26T00:38:54;8.45;;;6.95;;
50337;SDS011;46221;51.178;5.900;2023-06-26T00:41:20;8.40;;;7.00;;
50337;SDS011;46221;51.178;5.900;2023-06-26T00:43:47;7.55;;;6.15;;
50337;SDS011;46221;51.178;5.900;2023-06-26T00:46:13;8.82;;;6.80;;
50337;SDS011;46221;51.178;5.900;2023-06-26T00:48:41;7.90;;;6.90;;
50337;SDS011;46221;51.178;5.900;2023-06-26T00:51:11;8.35;;;6.70;;
50337;SDS011;46221;51.178;5.900;2023-06-26T00:53:37;7.88;;;6.82;;
50337;SDS011;46221;51.178;5.900;2023-06-26T00:56:04;7.53;;;6.72;;
50337;SDS011;46221;51.178;5.900;2023-06-26T00:58:31;7.68;;;6.20;;
50337;SDS011;46221;51.178;5.900;2023-06-26T01:00:57;7.75;;;6.53;;
50337;SDS011;46221;51.178;5.900;2023-06-26T01:03:24;9.75;;;7.05;;
50337;SDS011;46221;51.178;5.900;2023-06-26T01:05:52;8.43;;;6.72;;
50337;SDS011;46221;51.178;5.900;2023-06-26T01:08:18;7.00;;;6.30;;
50337;SDS011;46221;51.178;5.900;2023-06-26T01:10:45;7.57;;;6.38;;
50337;SDS011;46221;51.178;5.900;2023-06-26T01:13:12;7.43;;;6.07;;
50337;SDS011;46221;51.178;5.900;2023-06-26T01:15:39;7.63;;;6.53;;
50337;SDS011;46221;51.178;5.900;2023-06-26T01:18:06;7.82;;;6.50;;
50337;SDS011;46221;51.178;5.900;2023-06-26T01:20:36;7.20;;;6.50;;
50337;SDS011;46221;51.178;5.900;2023-06-26T01:23:24;7.85;;;6.47;;
50337;SDS011;46221;51.178;5.900;2023-06-26T01:25:56;8.25;;;7.30;;
50337;SDS011;46221;51.178;5.900;2023-06-26T01:28:27;8.50;;;6.35;;
50337;SDS011;46221;51.178;5.900;2023-06-26T01:30:54;7.53;;;5.93;;
50337;SDS011;46221;51.178;5.900;2023-06-26T01:33:20;7.68;;;6.65;;
50337;SDS011;46221;51.178;5.900;2023-06-26T01:35:47;7.60;;;5.88;;
50337;SDS011;46221;51.178;5.900;2023-06-26T01:38:18;8.10;;;6.68;;
50337;SDS011;46221;51.178;5.900;2023-06-26T01:40:44;8.15;;;5.82;;
50337;SDS011;46221;51.178;5.900;2023-06-26T01:43:15;6.82;;;5.88;;
50337;SDS011;46221;51.178;5.900;2023-06-26T01:45:42;8.05;;;6.60;;
50337;SDS011;46221;51.178;5.900;2023-06-26T01:48:08;6.75;;;5.95;;
50337;SDS011;46221;51.178;5.900;2023-06-26T01:50:36;7.93;;;6.38;;
50337;SDS011;46221;51.178;5.900;2023-06-26T01:53:04;7.43;;;6.60;;
50337;SDS011;46221;51.178;5.900;2023-06-26T01:58:02;7.18;;;6.28;;
50337;SDS011;46221;51.178;5.900;2023-06-26T02:00:29;7.80;;;6.05;;
50337;SDS011;46221;51.178;5.900;2023-06-26T02:02:57;8.00;;;6.00;;
50337;SDS011;46221;51.178;5.900;2023-06-26T02:05:23;7.22;;;6.10;;
50337;SDS011;46221;51.178;5.900;2023-06-26T02:07:50;7.85;;;5.50;;
50337;SDS011;46221;51.178;5.900;2023-06-26T02:10:17;7.70;;;5.97;;
50337;SDS011;46221;51.178;5.900;2023-06-26T02:12:43;6.78;;;5.97;;
50337;SDS011;46221;51.178;5.900;2023-06-26T02:15:10;7.00;;;5.85;;
50337;SDS011;46221;51.178;5.900;2023-06-26T02:17:36;7.30;;;6.30;;
50337;SDS011;46221;51.178;5.900;2023-06-26T02:20:02;8.27;;;5.95;;
50337;SDS011;46221;51.178;5.900;2023-06-26T02:22:29;7.97;;;5.22;;
50337;SDS011;46221;51.178;5.900;2023-06-26T02:24:55;6.35;;;5.70;;
50337;SDS011;46221;51.178;5.900;2023-06-26T02:27:22;7.53;;;5.80;;
50337;SDS011;46221;51.178;5.900;2023-06-26T02:29:48;8.43;;;5.82;;
50337;SDS011;46221;51.178;5.900;2023-06-26T02:32:15;6.57;;;5.60;;
50337;SDS011;46221;51.178;5.900;2023-06-26T02:34:41;5.90;;;5.10;;
50337;SDS011;46221;51.178;5.900;2023-06-26T02:37:07;6.65;;;5.47;;
50337;SDS011;46221;51.178;5.900;2023-06-26T02:39:34;6.65;;;5.78;;
50337;SDS011;46221;51.178;5.900;2023-06-26T02:42:00;7.00;;;5.75;;
50337;SDS011;46221;51.178;5.900;2023-06-26T02:44:27;7.05;;;6.00;;
50337;SDS011;46221;51.178;5.900;2023-06-26T02:46:53;8.43;;;5.40;;
50337;SDS011;46221;51.178;5.900;2023-06-26T02:49:20;6.00;;;5.10;;
50337;SDS011;46221;51.178;5.900;2023-06-26T02:51:48;7.13;;;5.60;;
50337;SDS011;46221;51.178;5.900;2023-06-26T02:54:15;7.13;;;5.20;;
50337;SDS011;46221;51.178;5.900;2023-06-26T02:56:41;8.30;;;5.65;;
50337;SDS011;46221;51.178;5.900;2023-06-26T02:59:13;8.25;;;4.97;;
50337;SDS011;46221;51.178;5.900;2023-06-26T03:01:39;7.13;;;5.63;;
50337;SDS011;46221;51.178;5.900;2023-06-26T03:04:06;6.95;;;5.20;;
50337;SDS011;46221;51.178;5.900;2023-06-26T03:06:32;7.68;;;5.15;;
50337;SDS011;46221;51.178;5.900;2023-06-26T03:08:59;6.75;;;5.20;;
50337;SDS011;46221;51.178;5.900;2023-06-26T03:11:25;6.38;;;5.30;;
50337;SDS011;46221;51.178;5.900;2023-06-26T03:13:51;7.57;;;4.75;;
50337;SDS011;46221;51.178;5.900;2023-06-26T03:16:18;6.03;;;5.03;;
50337;SDS011;46221;51.178;5.900;2023-06-26T03:18:44;7.38;;;5.07;;
50337;SDS011;46221;51.178;5.900;2023-06-26T03:21:10;7.15;;;5.13;;
50337;SDS011;46221;51.178;5.900;2023-06-26T03:23:38;8.23;;;5.32;;
50337;SDS011;46221;51.178;5.900;2023-06-26T03:26:05;5.63;;;4.43;;
50337;SDS011;46221;51.178;5.900;2023-06-26T03:28:31;6.47;;;4.90;;
50337;SDS011;46221;51.178;5.900;2023-06-26T03:30:58;6.80;;;4.95;;
50337;SDS011;46221;51.178;5.900;2023-06-26T03:33:24;6.07;;;4.50;;
50337;SDS011;46221;51.178;5.900;2023-06-26T03:35:51;6.75;;;5.15;;
50337;SDS011;46221;51.178;5.900;2023-06-26T03:38:17;8.25;;;4.88;;
50337;SDS011;46221;51.178;5.900;2023-06-26T03:40:43;5.88;;;5.00;;
50337;SDS011;46221;51.178;5.900;2023-06-26T03:43:10;6.63;;;4.57;;
50337;SDS011;46221;51.178;5.900;2023-06-26T03:45:36;6.47;;;4.65;;
50337;SDS011;46221;51.178;5.900;2023-06-26T03:48:02;6.80;;;4.90;;
50337;SDS011;46221;51.178;5.900;2023-06-26T03:50:29;6.40;;;4.97;;
50337;SDS011;46221;51.178;5.900;2023-06-26T03:52:55;5.97;;;4.65;;
50337;SDS011;46221;51.178;5.900;2023-06-26T03:55:22;6.55;;;4.65;;
50337;SDS011;46221;51.178;5.900;2023-06-26T03:57:49;6.28;;;4.70;;
50337;SDS011;46221;51.178;5.900;2023-06-26T04:00:16;5.20;;;4.43;;
50337;SDS011;46221;51.178;5.900;2023-06-26T04:02:42;7.95;;;4.75;;
50337;SDS011;46221;51.178;5.900;2023-06-26T04:05:09;6.38;;;4.47;;
50337;SDS011;46221;51.178;5.900;2023-06-26T04:07:37;6.82;;;5.00;;
50337;SDS011;46221;51.178;5.900;2023-06-26T04:10:03;6.07;;;4.60;;
50337;SDS011;46221;51.178;5.900;2023-06-26T04:12:30;6.10;;;4.35;;
50337;SDS011;46221;51.178;5.900;2023-06-26T04:14:56;5.38;;;4.07;;
50337;SDS011;46221;51.178;5.900;2023-06-26T04:17:22;7.65;;;4.68;;
50337;SDS011;46221;51.178;5.900;2023-06-26T04:19:49;5.90;;;4.78;;
50337;SDS011;46221;51.178;5.900;2023-06-26T04:22:15;6.88;;;4.65;;
50337;SDS011;46221;51.178;5.900;2023-06-26T04:24:42;6.28;;;4.50;;
50337;SDS011;46221;51.178;5.900;2023-06-26T04:27:09;6.22;;;4.53;;
50337;SDS011;46221;51.178;5.900;2023-06-26T04:29:37;6.55;;;4.60;;
50337;SDS011;46221;51.178;5.900;2023-06-26T04:32:03;6.65;;;4.90;;
50337;SDS011;46221;51.178;5.900;2023-06-26T04:34:30;7.32;;;4.43;;
50337;SDS011;46221;51.178;5.900;2023-06-26T04:37:01;6.10;;;4.78;;
50337;SDS011;46221;51.178;5.900;2023-06-26T04:39:30;9.95;;;4.55;;
50337;SDS011;46221;51.178;5.900;2023-06-26T04:41:56;7.88;;;4.80;;
50337;SDS011;46221;51.178;5.900;2023-06-26T04:44:23;6.38;;;4.30;;
50337;SDS011;46221;51.178;5.900;2023-06-26T04:46:49;7.07;;;4.63;;
50337;SDS011;46221;51.178;5.900;2023-06-26T04:49:18;5.40;;;4.03;;
50337;SDS011;46221;51.178;5.900;2023-06-26T04:51:44;5.80;;;4.47;;
50337;SDS011;46221;51.178;5.900;2023-06-26T04:54:11;5.13;;;4.15;;
50337;SDS011;46221;51.178;5.900;2023-06-26T04:56:37;6.95;;;4.35;;
50337;SDS011;46221;51.178;5.900;2023-06-26T04:59:06;7.97;;;4.40;;
50337;SDS011;46221;51.178;5.900;2023-06-26T05:01:32;6.25;;;4.35;;
50337;SDS011;46221;51.178;5.900;2023-06-26T05:03:59;6.43;;;4.18;;
50337;SDS011;46221;51.178;5.900;2023-06-26T05:06:25;6.70;;;4.25;;
50337;SDS011;46221;51.178;5.900;2023-06-26T05:08:51;6.10;;;4.47;;
50337;SDS011;46221;51.178;5.900;2023-06-26T05:11:20;5.55;;;4.10;;
50337;SDS011;46221;51.178;5.900;2023-06-26T05:13:47;6.25;;;4.03;;
50337;SDS011;46221;51.178;5.900;2023-06-26T05:16:13;8.82;;;4.30;;
50337;SDS011;46221;51.178;5.900;2023-06-26T05:18:39;7.30;;;4.38;;
50337;SDS011;46221;51.178;5.900;2023-06-26T05:21:06;6.82;;;3.90;;
50337;SDS011;46221;51.178;5.900;2023-06-26T05:23:33;7.45;;;3.55;;
50337;SDS011;46221;51.178;5.900;2023-06-26T05:26:00;7.30;;;4.00;;
50337;SDS011;46221;51.178;5.900;2023-06-26T05:28:27;6.97;;;3.80;;
50337;SDS011;46221;51.178;5.900;2023-06-26T05:30:54;7.45;;;4.22;;
50337;SDS011;46221;51.178;5.900;2023-06-26T05:33:21;7.65;;;3.88;;
50337;SDS011;46221;51.178;5.900;2023-06-26T05:35:49;6.90;;;3.78;;
50337;SDS011;46221;51.178;5.900;2023-06-26T05:38:17;6.88;;;3.58;;
50337;SDS011;46221;51.178;5.900;2023-06-26T05:40:44;5.75;;;3.92;;
50337;SDS011;46221;51.178;5.900;2023-06-26T05:43:11;6.07;;;3.50;;
50337;SDS011;46221;51.178;5.900;2023-06-26T05:45:37;6.60;;;3.40;;
50337;SDS011;46221;51.178;5.900;2023-06-26T05:48:04;6.20;;;4.38;;
50337;SDS011;46221;51.178;5.900;2023-06-26T05:50:30;8.00;;;3.58;;
50337;SDS011;46221;51.178;5.900;2023-06-26T05:52:57;6.28;;;3.42;;
50337;SDS011;46221;51.178;5.900;2023-06-26T05:55:24;7.65;;;3.30;;
50337;SDS011;46221;51.178;5.900;2023-06-26T05:57:51;8.40;;;3.63;;
50337;SDS011;46221;51.178;5.900;2023-06-26T06:00:17;6.90;;;3.50;;
50337;SDS011;46221;51.178;5.900;2023-06-26T06:02:45;8.48;;;3.88;;
50337;SDS011;46221;51.178;5.900;2023-06-26T06:05:11;7.47;;;3.67;;
50337;SDS011;46221;51.178;5.900;2023-06-26T06:07:37;10.48;;;3.90;;
50337;SDS011;46221;51.178;5.900;2023-06-26T06:10:04;16.50;;;4.57;;
50337;SDS011;46221;51.178;5.900;2023-06-26T06:12:30;6.55;;;3.42;;
50337;SDS011;46221;51.178;5.900;2023-06-26T06:14:57;8.25;;;3.72;;
50337;SDS011;46221;51.178;5.900;2023-06-26T06:17:23;8.68;;;3.60;;
50337;SDS011;46221;51.178;5.900;2023-06-26T06:19:50;8.57;;;4.20;;
50337;SDS011;46221;51.178;5.900;2023-06-26T06:22:16;6.93;;;3.30;;
50337;SDS011;46221;51.178;5.900;2023-06-26T06:24:43;8.07;;;3.33;;
50337;SDS011;46221;51.178;5.900;2023-06-26T06:27:10;8.07;;;3.20;;
50337;SDS011;46221;51.178;5.900;2023-06-26T06:29:36;7.30;;;3.20;;
50337;SDS011;46221;51.178;5.900;2023-06-26T06:32:03;7.82;;;3.08;;
50337;SDS011;46221;51.178;5.900;2023-06-26T06:34:29;8.23;;;3.38;;
50337;SDS011;46221;51.178;5.900;2023-06-26T06:36:56;8.82;;;4.10;;
50337;SDS011;46221;51.178;5.900;2023-06-26T06:39:22;8.85;;;3.63;;
50337;SDS011;46221;51.178;5.900;2023-06-26T06:41:48;7.70;;;2.85;;
50337;SDS011;46221;51.178;5.900;2023-06-26T06:44:15;6.22;;;2.92;;
50337;SDS011;46221;51.178;5.900;2023-06-26T06:46:41;6.68;;;3.30;;
50337;SDS011;46221;51.178;5.900;2023-06-26T06:49:08;7.25;;;3.40;;
50337;SDS011;46221;51.178;5.900;2023-06-26T06:51:34;6.32;;;3.00;;
50337;SDS011;46221;51.178;5.900;2023-06-26T06:54:01;8.02;;;3.80;;
50337;SDS011;46221;51.178;5.900;2023-06-26T06:56:27;8.98;;;3.38;;
50337;SDS011;46221;51.178;5.900;2023-06-26T06:58:54;8.07;;;3.00;;
50337;SDS011;46221;51.178;5.900;2023-06-26T07:01:21;8.25;;;3.45;;
50337;SDS011;46221;51.178;5.900;2023-06-26T07:03:47;9.75;;;3.40;;
50337;SDS011;46221;51.178;5.900;2023-06-26T07:06:14;6.22;;;3.15;;
50337;SDS011;46221;51.178;5.900;2023-06-26T07:08:40;8.25;;;3.20;;
50337;SDS011;46221;51.178;5.900;2023-06-26T07:11:06;7.57;;;3.42;;
50337;SDS011;46221;51.178;5.900;2023-06-26T07:13:33;8.13;;;3.03;;
50337;SDS011;46221;51.178;5.900;2023-06-26T07:15:59;8.48;;;3.35;;
50337;SDS011;46221;51.178;5.900;2023-06-26T07:18:26;7.80;;;3.20;;
50337;SDS011;46221;51.178;5.900;2023-06-26T07:20:52;8.25;;;3.35;;
50337;SDS011;46221;51.178;5.900;2023-06-26T07:23:19;6.57;;;2.63;;
50337;SDS011;46221;51.178;5.900;2023-06-26T07:25:45;7.03;;;3.17;;
50337;SDS011;46221;51.178;5.900;2023-06-26T07:28:11;6.82;;;2.85;;
50337;SDS011;46221;51.178;5.900;2023-06-26T07:30:38;8.70;;;3.55;;
50337;SDS011;46221;51.178;5.900;2023-06-26T07:33:05;8.90;;;3.30;;
50337;SDS011;46221;51.178;5.900;2023-06-26T07:35:31;9.25;;;3.53;;
50337;SDS011;46221;51.178;5.900;2023-06-26T07:37:58;7.38;;;3.10;;
50337;SDS011;46221;51.178;5.900;2023-06-26T07:40:25;6.85;;;3.15;;
50337;SDS011;46221;51.178;5.900;2023-06-26T07:42:51;8.27;;;3.50;;
50337;SDS011;46221;51.178;5.900;2023-06-26T07:45:21;8.98;;;3.08;;
50337;SDS011;46221;51.178;5.900;2023-06-26T07:47:50;8.52;;;3.20;;
50337;SDS011;46221;51.178;5.900;2023-06-26T07:50:17;9.88;;;3.63;;
50337;SDS011;46221;51.178;5.900;2023-06-26T07:52:49;8.27;;;2.92;;
50337;SDS011;46221;51.178;5.900;2023-06-26T07:55:15;7.78;;;3.50;;
50337;SDS011;46221;51.178;5.900;2023-06-26T07:57:41;7.60;;;3.30;;
50337;SDS011;46221;51.178;5.900;2023-06-26T08:00:08;7.55;;;3.17;;
50337;SDS011;46221;51.178;5.900;2023-06-26T08:02:35;9.70;;;3.22;;
50337;SDS011;46221;51.178;5.900;2023-06-26T08:05:01;9.95;;;3.13;;
50337;SDS011;46221;51.178;5.900;2023-06-26T08:07:28;8.32;;;3.60;;
50337;SDS011;46221;51.178;5.900;2023-06-26T08:09:54;7.40;;;2.95;;
50337;SDS011;46221;51.178;5.900;2023-06-26T08:12:21;8.40;;;3.40;;
50337;SDS011;46221;51.178;5.900;2023-06-26T08:14:47;5.40;;;2.67;;
50337;SDS011;46221;51.178;5.900;2023-06-26T08:17:13;6.47;;;3.00;;
50337;SDS011;46221;51.178;5.900;2023-06-26T08:19:40;6.53;;;2.70;;
50337;SDS011;46221;51.178;5.900;2023-06-26T08:22:06;8.45;;;2.80;;
50337;SDS011;46221;51.178;5.900;2023-06-26T08:24:33;8.35;;;2.83;;
50337;SDS011;46221;51.178;5.900;2023-06-26T08:26:59;8.77;;;2.55;;
50337;SDS011;46221;51.178;5.900;2023-06-26T08:29:25;5.68;;;2.83;;
50337;SDS011;46221;51.178;5.900;2023-06-26T08:31:52;6.13;;;2.90;;
50337;SDS011;46221;51.178;5.900;2023-06-26T08:34:18;5.47;;;2.78;;
50337;SDS011;46221;51.178;5.900;2023-06-26T08:36:45;6.72;;;2.90;;
50337;SDS011;46221;51.178;5.900;2023-06-26T08:39:11;8.80;;;2.97;;
50337;SDS011;46221;51.178;5.900;2023-06-26T08:41:37;5.95;;;2.63;;
50337;SDS011;46221;51.178;5.900;2023-06-26T08:44:04;8.63;;;2.40;;
50337;SDS011;46221;51.178;5.900;2023-06-26T08:46:31;6.40;;;2.40;;
50337;SDS011;46221;51.178;5.900;2023-06-26T08:49:01;4.93;;;2.00;;
50337;SDS011;46221;51.178;5.900;2023-06-26T08:51:30;5.80;;;2.78;;
50337;SDS011;46221;51.178;5.900;2023-06-26T08:53:59;6.22;;;2.20;;
50337;SDS011;46221;51.178;5.900;2023-06-26T08:56:36;7.28;;;2.17;;
50337;SDS011;46221;51.178;5.900;2023-06-26T08:59:03;7.20;;;2.35;;
50337;SDS011;46221;51.178;5.900;2023-06-26T09:01:30;6.53;;;2.47;;
50337;SDS011;46221;51.178;5.900;2023-06-26T09:03:57;5.68;;;1.98;;
50337;SDS011;46221;51.178;5.900;2023-06-26T09:06:23;6.78;;;2.35;;
50337;SDS011;46221;51.178;5.900;2023-06-26T09:08:50;7.68;;;2.20;;
50337;SDS011;46221;51.178;5.900;2023-06-26T09:11:16;5.68;;;1.88;;
50337;SDS011;46221;51.178;5.900;2023-06-26T09:13:42;4.80;;;1.80;;
50337;SDS011;46221;51.178;5.900;2023-06-26T09:16:09;8.75;;;2.72;;
50337;SDS011;46221;51.178;5.900;2023-06-26T09:18:36;5.38;;;1.95;;
50337;SDS011;46221;51.178;5.900;2023-06-26T09:21:06;4.95;;;2.10;;
50337;SDS011;46221;51.178;5.900;2023-06-26T09:23:33;5.43;;;2.28;;
50337;SDS011;46221;51.178;5.900;2023-06-26T09:25:59;4.80;;;2.03;;
50337;SDS011;46221;51.178;5.900;2023-06-26T09:28:28;4.82;;;1.90;;
50337;SDS011;46221;51.178;5.900;2023-06-26T09:30:54;4.93;;;1.80;;
50337;SDS011;46221;51.178;5.900;2023-06-26T09:33:20;6.05;;;1.75;;
50337;SDS011;46221;51.178;5.900;2023-06-26T09:35:47;3.35;;;1.35;;
50337;SDS011;46221;51.178;5.900;2023-06-26T09:38:14;4.00;;;1.88;;
50337;SDS011;46221;51.178;5.900;2023-06-26T09:40:41;4.22;;;1.70;;
50337;SDS011;46221;51.178;5.900;2023-06-26T09:43:09;3.85;;;1.50;;
50337;SDS011;46221;51.178;5.900;2023-06-26T09:45:35;5.20;;;1.77;;
50337;SDS011;46221;51.178;5.900;2023-06-26T09:48:05;5.22;;;1.75;;
50337;SDS011;46221;51.178;5.900;2023-06-26T09:50:34;5.55;;;2.25;;
50337;SDS011;46221;51.178;5.900;2023-06-26T09:53:09;4.70;;;1.65;;
50337;SDS011;46221;51.178;5.900;2023-06-26T09:55:36;3.90;;;1.35;;
50337;SDS011;46221;51.178;5.900;2023-06-26T09:58:03;3.42;;;1.40;;
50337;SDS011;46221;51.178;5.900;2023-06-26T10:00:31;4.85;;;1.58;;
50337;SDS011;46221;51.178;5.900;2023-06-26T10:03:01;3.50;;;1.60;;
50337;SDS011;46221;51.178;5.900;2023-06-26T10:05:27;4.60;;;1.77;;
50337;SDS011;46221;51.178;5.900;2023-06-26T10:07:54;4.97;;;1.75;;
50337;SDS011;46221;51.178;5.900;2023-06-26T10:10:21;3.15;;;1.30;;
50337;SDS011;46221;51.178;5.900;2023-06-26T10:12:49;3.45;;;1.25;;
50337;SDS011;46221;51.178;5.900;2023-06-26T10:15:17;4.55;;;1.30;;
50337;SDS011;46221;51.178;5.900;2023-06-26T10:17:44;5.35;;;1.40;;
50337;SDS011;46221;51.178;5.900;2023-06-26T10:20:12;4.32;;;1.58;;
50337;SDS011;46221;51.178;5.900;2023-06-26T10:22:41;4.32;;;1.40;;
50337;SDS011;46221;51.178;5.900;2023-06-26T10:25:08;3.47;;;1.50;;
50337;SDS011;46221;51.178;5.900;2023-06-26T10:27:36;3.65;;;1.65;;
50337;SDS011;46221;51.178;5.900;2023-06-26T10:30:05;3.72;;;1.15;;
50337;SDS011;46221;51.178;5.900;2023-06-26T10:32:32;4.03;;;1.33;;
50337;SDS011;46221;51.178;5.900;2023-06-26T10:34:59;2.95;;;1.30;;
50337;SDS011;46221;51.178;5.900;2023-06-26T10:37:44;3.67;;;1.50;;
50337;SDS011;46221;51.178;5.900;2023-06-26T10:40:12;5.10;;;1.48;;
50337;SDS011;46221;51.178;5.900;2023-06-26T10:42:38;3.75;;;1.23;;
50337;SDS011;46221;51.178;5.900;2023-06-26T10:47:39;3.60;;;1.15;;
50337;SDS011;46221;51.178;5.900;2023-06-26T10:50:17;3.78;;;1.15;;
50337;SDS011;46221;51.178;5.900;2023-06-26T10:55:34;2.55;;;1.25;;
50337;SDS011;46221;51.178;5.900;2023-06-26T10:58:01;4.07;;;1.05;;
50337;SDS011;46221;51.178;5.900;2023-06-26T11:00:31;5.00;;;0.98;;
50337;SDS011;46221;51.178;5.900;2023-06-26T11:02:58;3.85;;;1.38;;
50337;SDS011;46221;51.178;5.900;2023-06-26T11:05:28;2.40;;;1.05;;
50337;SDS011;46221;51.178;5.900;2023-06-26T11:08:08;4.18;;;1.13;;
50337;SDS011;46221;51.178;5.900;2023-06-26T11:10:53;2.78;;;1.13;;
50337;SDS011;46221;51.178;5.900;2023-06-26T11:13:20;5.85;;;1.58;;
50337;SDS011;46221;51.178;5.900;2023-06-26T11:15:47;4.15;;;1.15;;
50337;SDS011;46221;51.178;5.900;2023-06-26T11:18:13;3.67;;;1.08;;
50337;SDS011;46221;51.178;5.900;2023-06-26T11:20:41;4.95;;;1.40;;
50337;SDS011;46221;51.178;5.900;2023-06-26T11:23:07;4.47;;;1.50;;
50337;SDS011;46221;51.178;5.900;2023-06-26T11:25:35;8.02;;;2.15;;
50337;SDS011;46221;51.178;5.900;2023-06-26T11:28:03;10.10;;;2.13;;
50337;SDS011;46221;51.178;5.900;2023-06-26T11:30:30;5.30;;;1.60;;
50337;SDS011;46221;51.178;5.900;2023-06-26T11:33:06;8.02;;;1.70;;
50337;SDS011;46221;51.178;5.900;2023-06-26T11:35:33;7.03;;;1.77;;
50337;SDS011;46221;51.178;5.900;2023-06-26T11:38:01;5.47;;;1.80;;
50337;SDS011;46221;51.178;5.900;2023-06-26T11:40:32;5.32;;;1.70;;
50337;SDS011;46221;51.178;5.900;2023-06-26T11:42:59;5.70;;;1.70;;
50337;SDS011;46221;51.178;5.900;2023-06-26T11:45:29;9.20;;;1.83;;
50337;SDS011;46221;51.178;5.900;2023-06-26T11:47:56;7.88;;;1.55;;
50337;SDS011;46221;51.178;5.900;2023-06-26T11:50:23;6.32;;;1.38;;
50337;SDS011;46221;51.178;5.900;2023-06-26T11:52:56;6.93;;;1.60;;
50337;SDS011;46221;51.178;5.900;2023-06-26T11:55:23;3.97;;;1.38;;
50337;SDS011;46221;51.178;5.900;2023-06-26T11:57:50;7.50;;;1.60;;
50337;SDS011;46221;51.178;5.900;2023-06-26T12:00:19;4.22;;;1.33;;
50337;SDS011;46221;51.178;5.900;2023-06-26T12:02:45;7.82;;;1.63;;
50337;SDS011;46221;51.178;5.900;2023-06-26T12:05:13;4.30;;;1.40;;
50337;SDS011;46221;51.178;5.900;2023-06-26T12:07:41;5.25;;;1.38;;
50337;SDS011;46221;51.178;5.900;2023-06-26T12:10:09;6.85;;;1.83;;
50337;SDS011;46221;51.178;5.900;2023-06-26T12:12:37;3.95;;;1.50;;
50337;SDS011;46221;51.178;5.900;2023-06-26T12:15:03;3.88;;;1.52;;
50337;SDS011;46221;51.178;5.900;2023-06-26T12:17:31;8.18;;;1.73;;
50337;SDS011;46221;51.178;5.900;2023-06-26T12:19:58;4.85;;;1.10;;
50337;SDS011;46221;51.178;5.900;2023-06-26T12:22:24;4.82;;;1.33;;
50337;SDS011;46221;51.178;5.900;2023-06-26T12:25:00;3.42;;;1.13;;
50337;SDS011;46221;51.178;5.900;2023-06-26T12:27:26;4.25;;;1.33;;
50337;SDS011;46221;51.178;5.900;2023-06-26T12:29:54;3.22;;;1.38;;
50337;SDS011;46221;51.178;5.900;2023-06-26T12:32:24;3.97;;;1.40;;
50337;SDS011;46221;51.178;5.900;2023-06-26T12:34:51;6.05;;;1.40;;
50337;SDS011;46221;51.178;5.900;2023-06-26T12:37:19;4.72;;;1.30;;
50337;SDS011;46221;51.178;5.900;2023-06-26T12:42:16;3.75;;;1.33;;
50337;SDS011;46221;51.178;5.900;2023-06-26T12:44:42;5.10;;;1.35;;
50337;SDS011;46221;51.178;5.900;2023-06-26T12:47:09;4.43;;;1.40;;
50337;SDS011;46221;51.178;5.900;2023-06-26T12:49:36;4.22;;;1.00;;
50337;SDS011;46221;51.178;5.900;2023-06-26T12:52:03;6.13;;;1.20;;
50337;SDS011;46221;51.178;5.900;2023-06-26T12:54:30;3.92;;;1.30;;
50337;SDS011;46221;51.178;5.900;2023-06-26T12:56:57;2.90;;;1.27;;
50337;SDS011;46221;51.178;5.900;2023-06-26T12:59:24;3.45;;;1.02;;
50337;SDS011;46221;51.178;5.900;2023-06-26T13:01:50;3.45;;;1.23;;
50337;SDS011;46221;51.178;5.900;2023-06-26T13:04:17;3.10;;;1.17;;
50337;SDS011;46221;51.178;5.900;2023-06-26T13:06:44;4.20;;;1.20;;
50337;SDS011;46221;51.178;5.900;2023-06-26T13:09:10;5.72;;;1.48;;
50337;SDS011;46221;51.178;5.900;2023-06-26T13:11:37;4.00;;;1.05;;
50337;SDS011;46221;51.178;5.900;2023-06-26T13:14:04;4.72;;;1.30;;
50337;SDS011;46221;51.178;5.900;2023-06-26T13:16:37;4.88;;;1.13;;
50337;SDS011;46221;51.178;5.900;2023-06-26T13:19:04;5.25;;;1.52;;
50337;SDS011;46221;51.178;5.900;2023-06-26T13:21:30;3.50;;;1.27;;
50337;SDS011;46221;51.178;5.900;2023-06-26T13:23:57;5.32;;;1.40;;
50337;SDS011;46221;51.178;5.900;2023-06-26T13:26:24;2.72;;;1.23;;
50337;SDS011;46221;51.178;5.900;2023-06-26T13:29:02;5.20;;;1.50;;
50337;SDS011;46221;51.178;5.900;2023-06-26T13:31:28;3.90;;;1.63;;
50337;SDS011;46221;51.178;5.900;2023-06-26T13:33:56;4.13;;;0.90;;
50337;SDS011;46221;51.178;5.900;2023-06-26T13:36:23;5.45;;;1.45;;
50337;SDS011;46221;51.178;5.900;2023-06-26T13:38:49;4.43;;;1.30;;
50337;SDS011;46221;51.178;5.900;2023-06-26T13:41:24;5.90;;;1.60;;
50337;SDS011;46221;51.178;5.900;2023-06-26T13:43:51;4.15;;;1.45;;
50337;SDS011;46221;51.178;5.900;2023-06-26T13:46:18;4.32;;;1.38;;
50337;SDS011;46221;51.178;5.900;2023-06-26T13:48:45;3.70;;;1.20;;
50337;SDS011;46221;51.178;5.900;2023-06-26T13:51:11;5.75;;;1.33;;
50337;SDS011;46221;51.178;5.900;2023-06-26T13:53:38;2.97;;;1.10;;
50337;SDS011;46221;51.178;5.900;2023-06-26T13:56:04;5.65;;;1.20;;
50337;SDS011;46221;51.178;5.900;2023-06-26T13:58:31;3.72;;;1.30;;
50337;SDS011;46221;51.178;5.900;2023-06-26T14:00:59;4.68;;;1.38;;
50337;SDS011;46221;51.178;5.900;2023-06-26T14:03:26;5.90;;;1.75;;
50337;SDS011;46221;51.178;5.900;2023-06-26T14:05:52;3.80;;;1.10;;
50337;SDS011;46221;51.178;5.900;2023-06-26T14:08:19;4.55;;;1.25;;
50337;SDS011;46221;51.178;5.900;2023-06-26T14:10:45;3.75;;;0.90;;
50337;SDS011;46221;51.178;5.900;2023-06-26T14:13:11;3.10;;;1.10;;
50337;SDS011;46221;51.178;5.900;2023-06-26T14:15:41;2.92;;;1.05;;
50337;SDS011;46221;51.178;5.900;2023-06-26T14:18:08;4.05;;;1.40;;
50337;SDS011;46221;51.178;5.900;2023-06-26T14:20:35;6.25;;;1.30;;
50337;SDS011;46221;51.178;5.900;2023-06-26T14:23:03;3.33;;;1.08;;
50337;SDS011;46221;51.178;5.900;2023-06-26T14:25:29;2.45;;;1.10;;
50337;SDS011;46221;51.178;5.900;2023-06-26T14:27:56;5.05;;;1.50;;
50337;SDS011;46221;51.178;5.900;2023-06-26T14:30:23;3.58;;;1.27;;
50337;SDS011;46221;51.178;5.900;2023-06-26T14:32:49;2.95;;;1.15;;
50337;SDS011;46221;51.178;5.900;2023-06-26T14:35:16;3.17;;;1.23;;
50337;SDS011;46221;51.178;5.900;2023-06-26T14:37:43;2.78;;;1.08;;
50337;SDS011;46221;51.178;5.900;2023-06-26T14:40:10;4.38;;;1.23;;
50337;SDS011;46221;51.178;5.900;2023-06-26T14:42:37;3.42;;;1.25;;
50337;SDS011;46221;51.178;5.900;2023-06-26T14:45:04;4.40;;;1.13;;
50337;SDS011;46221;51.178;5.900;2023-06-26T14:47:31;3.53;;;1.05;;
50337;SDS011;46221;51.178;5.900;2023-06-26T14:49:57;4.53;;;1.33;;
50337;SDS011;46221;51.178;5.900;2023-06-26T14:52:24;5.85;;;1.70;;
50337;SDS011;46221;51.178;5.900;2023-06-26T14:54:50;4.32;;;1.23;;
50337;SDS011;46221;51.178;5.900;2023-06-26T14:57:17;4.38;;;1.40;;
50337;SDS011;46221;51.178;5.900;2023-06-26T14:59:43;3.33;;;0.90;;